createdAt,value
2018-07-14T00:00:54.554Z,17.79
2018-07-14T00:03:23.386Z,17.82
2018-07-14T00:05:53.105Z,17.82
2018-07-14T00:08:20.720Z,17.78
2018-07-14T00:10:48.577Z,17.76
2018-07-14T00:13:16.556Z,17.72
2018-07-14T00:15:45.259Z,17.69
2018-07-14T00:18:14.080Z,17.67
2018-07-14T00:20:41.981Z,17.66
2018-07-14T00:23:10.146Z,17.62
2018-07-14T00:25:44.343Z,17.55
2018-07-14T00:28:12.368Z,17.45
2018-07-14T00:30:40.008Z,17.36
2018-07-14T00:33:07.675Z,17.27
2018-07-14T00:35:35.587Z,17.21
2018-07-14T00:38:04.065Z,17.16
2018-07-14T00:40:33.021Z,17.12
2018-07-14T00:43:00.930Z,17.09
2018-07-14T00:45:28.567Z,17.05
2018-07-14T00:47:56.239Z,17.01
2018-07-14T00:50:25.738Z,16.98
2018-07-14T00:52:53.409Z,16.96
2018-07-14T00:55:21.035Z,16.90
2018-07-14T00:57:48.643Z,16.85
2018-07-14T01:00:16.675Z,16.82
2018-07-14T01:02:44.743Z,16.78
2018-07-14T01:05:12.434Z,16.76
2018-07-14T01:07:40.346Z,16.73
2018-07-14T01:10:08.032Z,16.70
2018-07-14T01:12:35.678Z,16.68
2018-07-14T01:15:03.704Z,16.66
2018-07-14T01:17:32.475Z,16.63
2018-07-14T01:20:00.166Z,16.61
2018-07-14T01:22:28.900Z,16.59
2018-07-14T01:24:56.833Z,16.57
2018-07-14T01:27:24.432Z,16.55
2018-07-14T01:29:52.098Z,16.52
2018-07-14T01:32:20.028Z,16.48
2018-07-14T01:34:48.647Z,16.45
2018-07-14T01:37:16.313Z,16.41
2018-07-14T01:39:43.943Z,16.39
2018-07-14T01:42:11.861Z,16.36
2018-07-14T01:44:39.537Z,16.34
2018-07-14T01:47:07.183Z,16.33
2018-07-14T01:49:35.078Z,16.31
2018-07-14T01:52:02.739Z,16.29
2018-07-14T01:54:31.155Z,16.28
2018-07-14T01:56:59.089Z,16.26
2018-07-14T01:59:26.698Z,16.22
2018-07-14T02:01:54.339Z,16.19
2018-07-14T02:04:22.896Z,16.17
2018-07-14T02:06:50.552Z,16.16
2018-07-14T02:09:18.191Z,16.16
2018-07-14T02:11:46.116Z,16.15
2018-07-14T02:14:13.764Z,16.14
2018-07-14T02:16:41.384Z,16.13
2018-07-14T02:19:09.012Z,16.12
2018-07-14T02:21:36.903Z,16.09
2018-07-14T02:24:04.571Z,16.07
2018-07-14T02:26:32.219Z,16.06
2018-07-14T02:28:59.864Z,16.00
2018-07-14T02:31:27.975Z,15.97
2018-07-14T02:33:55.599Z,15.92
2018-07-14T02:36:23.232Z,15.88
2018-07-14T02:38:50.945Z,15.84
2018-07-14T02:41:18.859Z,15.80
2018-07-14T02:43:46.688Z,15.76
2018-07-14T02:46:14.366Z,15.72
2018-07-14T02:48:42.003Z,15.67
2018-07-14T02:51:11.641Z,15.64
2018-07-14T02:53:40.357Z,15.61
2018-07-14T02:56:07.958Z,15.59
2018-07-14T02:58:35.596Z,15.57
2018-07-14T03:01:03.528Z,15.55
2018-07-14T03:03:31.680Z,15.54
2018-07-14T03:05:59.300Z,15.52
2018-07-14T03:08:27.206Z,15.50
2018-07-14T03:10:54.853Z,15.47
2018-07-14T03:13:22.530Z,15.43
2018-07-14T03:15:50.933Z,15.40
2018-07-14T03:18:18.856Z,15.36
2018-07-14T03:20:46.503Z,15.32
2018-07-14T03:23:14.185Z,15.27
2018-07-14T03:25:41.794Z,15.26
2018-07-14T03:28:09.701Z,15.21
2018-07-14T03:30:37.308Z,15.21
2018-07-14T03:33:05.022Z,15.19
2018-07-14T03:35:32.675Z,15.18
2018-07-14T03:38:00.636Z,15.17
2018-07-14T03:40:28.308Z,15.16
2018-07-14T03:42:55.953Z,15.16
2018-07-14T03:45:23.908Z,15.14
2018-07-14T03:47:52.339Z,15.13
2018-07-14T03:50:20.227Z,15.12
2018-07-14T03:52:47.861Z,15.11
2018-07-14T03:55:15.794Z,15.13
2018-07-14T03:57:43.387Z,15.14
2018-07-14T04:00:10.982Z,15.15
2018-07-14T04:02:38.602Z,15.16
2018-07-14T04:05:06.273Z,15.15
2018-07-14T04:07:34.119Z,15.16
2018-07-14T04:10:01.757Z,15.16
2018-07-14T04:12:29.648Z,15.14
2018-07-14T04:14:57.303Z,15.16
2018-07-14T04:17:24.916Z,15.19
2018-07-14T04:19:52.850Z,15.22
2018-07-14T04:22:20.451Z,15.25
2018-07-14T04:24:48.100Z,15.31
2018-07-14T04:27:15.768Z,15.36
2018-07-14T04:29:43.671Z,15.41
2018-07-14T04:32:11.295Z,15.46
2018-07-14T04:34:38.908Z,15.53
2018-07-14T04:37:06.530Z,15.63
2018-07-14T04:39:34.459Z,15.73
2018-07-14T04:42:02.094Z,15.82
2018-07-14T04:44:30.691Z,15.91
2018-07-14T04:46:58.578Z,15.97
2018-07-14T04:49:26.313Z,16.03
2018-07-14T04:51:53.937Z,16.13
2018-07-14T04:54:21.628Z,16.18
2018-07-14T04:56:49.499Z,16.23
2018-07-14T04:59:17.110Z,16.28
2018-07-14T05:01:44.728Z,16.33
2018-07-14T05:04:12.361Z,16.41
2018-07-14T05:06:39.982Z,16.53
2018-07-14T05:09:07.982Z,16.65
2018-07-14T05:11:35.978Z,16.73
2018-07-14T05:14:03.658Z,16.82
2018-07-14T05:16:31.285Z,16.95
2018-07-14T05:18:59.190Z,17.05
2018-07-14T05:21:26.887Z,17.17
2018-07-14T05:23:54.492Z,17.28
2018-07-14T05:26:23.349Z,17.39
2018-07-14T05:28:50.982Z,17.48
2018-07-14T05:31:18.616Z,17.55
2018-07-14T05:33:46.539Z,17.63
2018-07-14T05:36:14.179Z,17.69
2018-07-14T05:38:41.789Z,17.79
2018-07-14T05:41:09.725Z,17.88
2018-07-14T05:43:37.334Z,17.94
2018-07-14T05:46:05.000Z,18.04
2018-07-14T05:48:32.940Z,18.13
2018-07-14T05:51:00.586Z,18.23
2018-07-14T05:53:29.387Z,18.34
2018-07-14T05:55:57.322Z,18.43
2018-07-14T05:58:24.938Z,18.52
2018-07-14T06:00:52.598Z,18.63
2018-07-14T06:03:20.527Z,18.72
2018-07-14T06:05:48.139Z,18.82
2018-07-14T06:08:15.793Z,18.94
2018-07-14T06:10:43.775Z,19.02
2018-07-14T06:13:11.419Z,19.12
2018-07-14T06:15:39.064Z,19.25
2018-07-14T06:18:07.001Z,19.42
2018-07-14T06:20:34.667Z,19.66
2018-07-14T06:23:02.321Z,19.91
2018-07-14T06:25:30.256Z,20.13
2018-07-14T06:27:57.882Z,20.20
2018-07-14T06:30:25.547Z,20.20
2018-07-14T06:32:53.504Z,20.14
2018-07-14T06:35:21.142Z,20.10
2018-07-14T06:37:48.774Z,20.11
2018-07-14T06:40:17.370Z,20.15
2018-07-14T06:42:45.531Z,20.16
2018-07-14T06:45:13.144Z,20.21
2018-07-14T06:47:44.180Z,20.27
2018-07-14T06:50:11.817Z,20.33
2018-07-14T06:52:39.695Z,20.40
2018-07-14T06:55:07.643Z,20.48
2018-07-14T06:57:36.870Z,20.52
2018-07-14T07:00:04.535Z,20.52
2018-07-14T07:02:33.576Z,20.48
2018-07-14T07:05:01.236Z,20.51
2018-07-14T07:07:29.490Z,20.56
2018-07-14T07:09:57.401Z,20.67
2018-07-14T07:12:25.024Z,20.78
2018-07-14T07:14:52.646Z,20.91
2018-07-14T07:17:20.687Z,21.03
2018-07-14T07:19:48.330Z,21.19
2018-07-14T07:22:16.842Z,21.27
2018-07-14T07:24:45.440Z,21.33
2018-07-14T07:27:13.811Z,21.42
2018-07-14T07:29:41.482Z,21.53
2018-07-14T07:32:09.644Z,21.64
2018-07-14T07:34:37.348Z,21.73
2018-07-14T07:37:06.366Z,21.83
2018-07-14T07:39:34.307Z,21.96
2018-07-14T07:42:06.626Z,22.09
2018-07-14T07:44:36.250Z,22.21
2018-07-14T07:47:04.708Z,22.30
2018-07-14T07:49:32.326Z,22.39
2018-07-14T07:52:01.951Z,22.44
2018-07-14T07:54:29.899Z,22.53
2018-07-14T07:56:57.546Z,22.56
2018-07-14T07:59:26.797Z,22.57
2018-07-14T08:01:56.125Z,22.63
2018-07-14T08:04:24.603Z,22.70
2018-07-14T08:06:53.031Z,22.78
2018-07-14T08:09:20.895Z,22.87
2018-07-14T08:11:50.701Z,22.98
2018-07-14T08:14:18.299Z,23.09
2018-07-14T08:16:48.671Z,23.16
2018-07-14T08:19:18.020Z,23.23
2018-07-14T08:21:45.671Z,23.34
2018-07-14T08:24:13.620Z,23.45
2018-07-14T08:26:41.507Z,23.53
2018-07-14T08:29:10.142Z,23.59
2018-07-14T08:31:38.675Z,23.66
2018-07-14T08:34:06.546Z,23.76
2018-07-14T08:42:04.632Z,23.87
2018-07-14T08:44:32.454Z,24.18
2018-07-14T08:47:18.534Z,24.25
2018-07-14T08:49:46.439Z,24.37
2018-07-14T08:52:14.028Z,24.39
2018-07-14T08:54:42.258Z,24.39
2018-07-14T08:57:10.155Z,24.45
2018-07-14T08:59:38.312Z,24.50
2018-07-14T09:02:09.237Z,24.57
2018-07-14T09:04:37.098Z,24.57
2018-07-14T09:07:05.336Z,24.67
2018-07-14T09:09:34.019Z,24.78
2018-07-14T09:12:02.526Z,24.93
2018-07-14T09:14:30.325Z,25.01
2018-07-14T09:16:58.667Z,25.10
2018-07-14T09:19:31.481Z,25.17
2018-07-14T09:22:01.209Z,25.20
2018-07-14T09:24:29.507Z,25.29
2018-07-14T09:26:57.602Z,25.41
2018-07-14T09:29:26.334Z,25.50
2018-07-14T09:31:54.509Z,25.62
2018-07-14T09:34:26.116Z,25.75
2018-07-14T09:36:54.414Z,25.87
2018-07-14T09:39:24.285Z,25.97
2018-07-14T09:41:54.787Z,26.02
2018-07-14T09:44:22.372Z,26.08
2018-07-14T09:46:53.577Z,26.19
2018-07-14T09:49:21.430Z,26.33
2018-07-14T09:51:51.266Z,26.45
2018-07-14T09:54:18.927Z,26.52
2018-07-14T09:56:47.926Z,26.55
2018-07-14T09:59:17.455Z,26.72
2018-07-14T10:01:46.138Z,26.91
2018-07-14T10:04:16.902Z,27.10
2018-07-14T10:06:47.644Z,27.26
2018-07-14T10:09:16.126Z,27.52
2018-07-14T10:11:44.025Z,27.77
2018-07-14T10:14:11.651Z,28.06
2018-07-14T10:16:39.298Z,28.38
2018-07-14T10:19:07.179Z,28.69
2018-07-14T10:21:34.765Z,28.95
2018-07-14T10:24:04.050Z,29.29
2018-07-14T10:26:31.932Z,29.61
2018-07-14T10:28:59.551Z,29.91
2018-07-14T10:31:28.565Z,30.23
2018-07-14T10:33:57.115Z,30.54
2018-07-14T10:36:24.777Z,30.77
2018-07-14T10:38:52.397Z,30.84
2018-07-14T10:41:20.362Z,30.96
2018-07-14T10:43:48.795Z,31.18
2018-07-14T10:46:16.498Z,31.47
2018-07-14T10:48:44.390Z,31.69
2018-07-14T10:51:12.029Z,31.85
2018-07-14T10:53:39.639Z,32.02
2018-07-14T10:56:12.558Z,32.17
2018-07-14T10:58:40.507Z,32.29
2018-07-14T11:01:08.855Z,32.48
2018-07-14T11:03:36.783Z,32.46
2018-07-14T11:06:04.395Z,32.58
2018-07-14T11:08:32.809Z,32.80
2018-07-14T11:11:01.675Z,33.00
2018-07-14T11:13:29.266Z,33.22
2018-07-14T11:15:56.859Z,33.38
2018-07-14T11:18:25.667Z,33.63
2018-07-14T11:20:53.300Z,33.88
2018-07-14T11:23:20.958Z,34.06
2018-07-14T11:25:48.883Z,34.26
2018-07-14T11:28:16.553Z,34.36
2018-07-14T11:30:45.441Z,34.51
2018-07-14T11:33:13.341Z,34.67
2018-07-14T11:35:40.989Z,34.88
2018-07-14T11:38:08.676Z,34.97
2018-07-14T11:40:37.671Z,34.99
2018-07-14T11:43:05.295Z,35.09
2018-07-14T11:45:32.880Z,35.35
2018-07-14T11:48:00.865Z,35.58
2018-07-14T11:50:28.447Z,35.73
2018-07-14T11:52:57.679Z,35.86
2018-07-14T11:55:25.571Z,35.94
2018-07-14T11:57:53.193Z,36.03
2018-07-14T12:00:20.792Z,36.07
2018-07-14T12:02:49.025Z,36.18
2018-07-14T12:05:16.639Z,36.34
2018-07-14T12:07:44.299Z,36.33
2018-07-14T12:10:13.019Z,36.50
2018-07-14T12:12:40.693Z,36.18
2018-07-14T12:15:08.377Z,35.24
2018-07-14T12:17:36.284Z,35.03
2018-07-14T12:20:03.920Z,35.14
2018-07-14T12:22:32.222Z,35.29
2018-07-14T12:25:00.241Z,35.45
2018-07-14T12:27:27.860Z,34.88
2018-07-14T12:29:55.606Z,34.42
2018-07-14T12:32:23.709Z,34.66
2018-07-14T12:34:52.285Z,35.04
2018-07-14T12:37:19.859Z,35.56
2018-07-14T12:39:48.040Z,36.12
2018-07-14T12:42:15.635Z,36.32
2018-07-14T12:44:43.222Z,35.25
2018-07-14T12:47:11.147Z,34.06
2018-07-14T12:49:40.154Z,34.11
2018-07-14T12:52:08.379Z,34.70
2018-07-14T12:54:36.282Z,35.33
2018-07-14T12:57:03.888Z,35.81
2018-07-14T12:59:31.759Z,36.18
2018-07-14T13:02:02.215Z,36.51
2018-07-14T13:04:29.871Z,36.67
2018-07-14T13:06:57.476Z,36.82
2018-07-14T13:09:25.628Z,36.91
2018-07-14T13:11:54.099Z,36.95
2018-07-14T13:14:21.702Z,37.18
2018-07-14T13:16:49.577Z,37.34
2018-07-14T13:19:17.156Z,37.42
2018-07-14T13:21:45.322Z,37.60
2018-07-14T13:24:13.211Z,37.88
2018-07-14T13:26:40.827Z,38.14
2018-07-14T13:29:08.475Z,38.05
2018-07-14T13:31:38.419Z,38.07
2018-07-14T13:34:07.071Z,37.66
2018-07-14T13:36:35.506Z,37.45
2018-07-14T13:39:03.713Z,37.41
2018-07-14T13:41:31.349Z,37.63
2018-07-14T13:44:02.266Z,37.71
2018-07-14T13:46:31.179Z,37.48
2018-07-14T13:48:58.798Z,37.01
2018-07-14T13:51:26.636Z,37.01
2018-07-14T13:53:54.547Z,37.10
2018-07-14T13:56:24.276Z,37.21
2018-07-14T14:01:39.291Z,37.68
2018-07-14T14:43:12.475Z,36.52
2018-07-14T14:45:42.901Z,36.21
2018-07-14T14:48:11.371Z,36.18
2018-07-14T14:50:38.958Z,35.68
2018-07-14T14:53:06.571Z,35.16
2018-07-14T14:55:35.467Z,34.50
2018-07-14T14:58:03.992Z,34.80
2018-07-14T15:00:31.617Z,35.36
2018-07-14T15:03:00.466Z,35.23
2018-07-14T15:05:28.070Z,34.26
2018-07-14T15:07:55.681Z,33.33
2018-07-14T15:10:24.190Z,33.45
2018-07-14T15:12:54.374Z,34.41
2018-07-14T15:15:21.992Z,35.55
2018-07-14T15:17:52.100Z,36.61
2018-07-14T15:20:19.700Z,37.59
2018-07-14T15:22:47.308Z,38.10
2018-07-14T15:25:17.250Z,38.75
2018-07-14T15:27:45.828Z,39.04
2018-07-14T15:30:14.467Z,37.73
2018-07-14T15:32:42.736Z,36.68
2018-07-14T15:35:10.296Z,35.67
2018-07-14T15:37:39.246Z,35.88
2018-07-14T15:40:07.212Z,36.51
2018-07-14T15:42:36.830Z,36.89
2018-07-14T15:45:05.207Z,37.11
2018-07-14T15:47:33.095Z,37.45
2018-07-14T15:50:01.899Z,37.75
2018-07-14T15:52:30.576Z,37.99
2018-07-14T15:54:58.453Z,38.07
2018-07-14T15:57:26.056Z,38.11
2018-07-14T15:59:54.377Z,38.21
2018-07-14T16:02:24.449Z,38.22
2018-07-14T16:04:52.678Z,38.19
2018-07-14T16:07:20.317Z,38.21
2018-07-14T16:09:48.167Z,38.29
2018-07-14T16:12:17.106Z,38.23
2018-07-14T16:14:45.453Z,37.98
2018-07-14T16:17:13.439Z,37.78
2018-07-14T16:19:42.060Z,37.76
2018-07-14T16:22:09.679Z,37.58
2018-07-14T16:24:38.730Z,37.40
2018-07-14T16:27:09.381Z,37.09
2018-07-14T16:29:37.732Z,36.27
2018-07-14T16:32:06.902Z,35.15
2018-07-14T16:34:35.261Z,33.90
2018-07-14T16:37:02.930Z,32.83
2018-07-14T16:39:31.044Z,31.86
2018-07-14T16:41:59.422Z,31.18
2018-07-14T16:44:27.476Z,30.69
2018-07-14T16:46:56.278Z,30.26
2018-07-14T16:49:23.861Z,29.86
2018-07-14T16:51:51.453Z,29.54
2018-07-14T16:54:19.333Z,29.51
2018-07-14T16:56:47.885Z,29.93
2018-07-14T16:59:15.471Z,30.18
2018-07-14T17:01:43.336Z,29.98
2018-07-14T17:04:11.202Z,29.63
2018-07-14T17:06:39.741Z,29.34
2018-07-14T17:09:07.716Z,29.05
2018-07-14T17:11:35.347Z,28.80
2018-07-14T17:14:03.827Z,28.60
2018-07-14T17:16:32.011Z,28.42
2018-07-14T17:18:59.660Z,28.25
2018-07-14T17:21:28.801Z,28.08
2018-07-14T17:23:56.923Z,27.91
2018-07-14T17:26:25.208Z,27.72
2018-07-14T17:28:52.825Z,27.58
2018-07-14T17:31:22.482Z,27.45
2018-07-14T17:33:50.128Z,27.32
2018-07-14T17:36:18.510Z,27.18
2018-07-14T17:38:46.120Z,27.06
2018-07-14T17:41:14.731Z,26.95
2018-07-14T17:43:43.592Z,26.84
2018-07-14T17:46:11.254Z,26.74
2018-07-14T17:48:39.108Z,26.64
2018-07-14T17:51:09.261Z,26.57
2018-07-14T17:53:38.983Z,26.50
2018-07-14T17:56:06.760Z,26.42
2018-07-14T17:58:36.439Z,26.34
2018-07-14T18:01:04.134Z,26.27
2018-07-14T18:03:33.361Z,26.19
2018-07-14T18:06:01.696Z,26.12
2018-07-14T18:08:30.751Z,26.05
2018-07-14T18:10:59.455Z,25.98
2018-07-14T18:13:27.481Z,25.90
2018-07-14T18:15:55.310Z,25.84
2018-07-14T18:18:23.701Z,25.79
2018-07-14T18:20:53.710Z,25.71
2018-07-14T18:23:21.428Z,25.63
2018-07-14T18:25:49.762Z,25.57
2018-07-14T18:28:17.713Z,25.49
2018-07-14T18:30:46.539Z,25.43
2018-07-14T18:33:14.204Z,25.37
2018-07-14T18:35:43.460Z,25.31
2018-07-14T18:38:11.107Z,25.24
2018-07-14T18:40:39.274Z,25.16
2018-07-14T18:43:07.279Z,25.10
2018-07-14T18:45:39.835Z,25.01
2018-07-14T18:48:08.481Z,24.92
2018-07-14T18:50:37.839Z,24.83
2018-07-14T18:53:05.521Z,24.76
2018-07-14T18:55:33.633Z,24.68
2018-07-14T18:58:01.955Z,24.61
2018-07-14T19:00:29.715Z,24.53
2018-07-14T19:02:57.399Z,24.45
2018-07-14T19:05:28.694Z,24.38
2018-07-14T19:07:57.132Z,24.29
2018-07-14T19:10:28.596Z,24.23
2018-07-14T19:12:56.459Z,24.15
2018-07-14T19:15:25.099Z,24.07
2018-07-14T19:17:52.927Z,24.02
2018-07-14T19:20:23.501Z,23.94
2018-07-14T19:22:51.639Z,23.86
2018-07-14T19:25:19.579Z,23.77
2018-07-14T19:27:47.573Z,23.66
2018-07-14T19:30:19.426Z,23.57
2018-07-14T19:32:47.471Z,23.48
2018-07-14T19:35:15.438Z,23.37
2018-07-14T19:37:43.211Z,23.28
2018-07-14T19:40:12.196Z,23.19
2018-07-14T19:42:41.344Z,23.13
2018-07-14T19:45:12.301Z,23.04
2018-07-14T19:47:41.807Z,22.94
2018-07-14T19:50:11.452Z,22.85
2018-07-14T19:52:43.793Z,22.78
2018-07-14T19:55:12.503Z,22.70
2018-07-14T19:57:41.055Z,22.62
2018-07-14T20:00:10.807Z,22.56
2018-07-14T20:02:40.307Z,22.51
2018-07-14T20:05:09.248Z,22.44
2018-07-14T20:07:37.435Z,22.37
2018-07-14T20:10:05.643Z,22.28
2018-07-14T20:12:34.217Z,22.21
2018-07-14T20:15:02.891Z,22.12
2018-07-14T20:17:31.368Z,22.02
2018-07-14T20:20:00.511Z,21.94
2018-07-14T20:22:28.520Z,21.85
2018-07-14T20:24:59.391Z,21.78
2018-07-14T20:27:27.722Z,21.69
2018-07-14T20:29:56.323Z,21.62
2018-07-14T20:32:24.270Z,21.53
2018-07-14T20:34:53.046Z,21.46
2018-07-14T20:37:20.755Z,21.38
2018-07-14T20:39:48.983Z,21.30
2018-07-14T20:42:23.457Z,21.21
2018-07-14T20:44:52.555Z,21.12
2018-07-14T20:47:23.728Z,21.03
2018-07-14T20:49:53.454Z,20.97
2018-07-14T20:52:22.248Z,20.90
2018-07-14T20:54:53.119Z,20.83
2018-07-14T20:57:24.281Z,20.75
2018-07-14T20:59:53.562Z,20.69
2018-07-14T21:02:21.606Z,20.61
2018-07-14T21:04:51.456Z,20.55
2018-07-14T21:07:21.202Z,20.48
2018-07-14T21:09:49.082Z,20.41
2018-07-14T21:12:17.017Z,20.34
2018-07-14T21:14:44.917Z,20.26
2018-07-14T21:17:13.579Z,20.18
2018-07-14T21:19:43.039Z,20.10
2018-07-14T21:22:12.670Z,20.01
2018-07-14T21:24:40.500Z,19.92
2018-07-14T21:27:08.268Z,19.86
2018-07-14T21:29:50.475Z,19.79
2018-07-14T21:32:18.236Z,19.73
2018-07-14T21:34:46.331Z,19.70
2018-07-14T21:37:28.268Z,19.66
2018-07-14T21:39:57.303Z,19.64
2018-07-14T21:42:26.402Z,19.63
2018-07-14T21:44:55.079Z,19.62
2018-07-14T21:47:23.026Z,19.59
2018-07-14T21:49:50.649Z,19.57
2018-07-14T21:54:51.948Z,19.49
2018-07-14T21:57:20.325Z,19.43
2018-07-14T21:59:47.956Z,19.36
2018-07-14T22:02:16.615Z,19.30
2018-07-14T22:04:44.930Z,19.24
2018-07-14T22:07:12.539Z,19.18
2018-07-14T22:09:40.126Z,19.13
2018-07-14T22:12:08.256Z,19.10
2018-07-14T22:14:36.151Z,19.03
2018-07-14T22:17:04.552Z,18.97
2018-07-14T22:19:32.336Z,18.93
2018-07-14T22:22:01.230Z,18.86
2018-07-14T22:24:29.614Z,18.81
2018-07-14T22:26:57.826Z,18.77
2018-07-14T22:29:26.813Z,18.74
2018-07-14T22:31:55.430Z,18.70
2018-07-14T22:34:27.020Z,18.66
2018-07-14T22:36:54.954Z,18.62
2018-07-14T22:39:22.541Z,18.58
2018-07-14T22:41:54.447Z,18.56
2018-07-14T22:44:22.360Z,18.52
2018-07-14T22:46:49.950Z,18.48
2018-07-14T22:49:17.556Z,18.45
2018-07-14T22:51:45.501Z,18.42
2018-07-14T22:54:13.114Z,18.40
2018-07-14T22:56:41.412Z,18.37
2018-07-14T22:59:09.315Z,18.34
2018-07-14T23:01:38.140Z,18.32
2018-07-14T23:04:05.731Z,18.28
2018-07-14T23:06:33.627Z,18.27
2018-07-14T23:09:02.199Z,18.25
2018-07-14T23:11:29.777Z,18.22
2018-07-14T23:14:01.285Z,18.19
2018-07-14T23:16:28.854Z,18.15
2018-07-14T23:18:56.478Z,18.12
2018-07-14T23:21:24.323Z,18.08
2018-07-14T23:23:51.944Z,18.02
2018-07-14T23:26:19.550Z,17.96
2018-07-14T23:28:47.435Z,17.90
2018-07-14T23:31:15.022Z,17.83
2018-07-14T23:33:42.644Z,17.76
2018-07-14T23:36:10.507Z,17.70
2018-07-14T23:38:42.383Z,17.63
2018-07-14T23:41:10.000Z,17.55
2018-07-14T23:43:37.869Z,17.48
2018-07-14T23:46:05.445Z,17.42
2018-07-14T23:48:33.116Z,17.35
2018-07-14T23:51:01.243Z,17.30
2018-07-14T23:53:28.862Z,17.26
2018-07-14T23:55:56.438Z,17.21
2018-07-14T23:58:24.357Z,17.19
